Terminal Aerodrome Forecast
Issued by NWS

Home | Current Version | Previous Version | Text Only | Print | Product List | Glossary On
Versions: 1 2 3 4 5 6 7 8 9 10 11 12 13 14 15 16 17
788
FTUS45 KTFX 231742
TAFHLN
TAF
KHLN 231742Z 2318/2418 28006KT P6SM OVC035
     FM240100 32007KT P6SM VCSH SCT010 OVC035
     FM241200 28006KT P6SM VCFG SCT003 OVC015
     FM241600 27004KT P6SM OVC050=

USA.gov is the U.S. government's official web portal to all federal, state and local government web resources and services.